createdAt,value
2023-02-02T00:21:03.332Z,115.98
2023-02-02T00:22:03.474Z,114.30
2023-02-02T00:23:03.342Z,113.46
2023-02-02T00:24:03.424Z,115.03
2023-02-02T00:25:03.429Z,113.23
2023-02-02T00:26:03.476Z,117.76
2023-02-02T00:27:03.495Z,115.03
2023-02-02T00:28:03.558Z,112.76
2023-02-02T00:29:03.535Z,114.35
2023-02-02T00:30:03.583Z,114.05
2023-02-02T00:31:03.654Z,112.53
2023-02-02T00:32:03.608Z,117.96
2023-02-02T00:33:03.678Z,112.85
2023-02-02T00:34:03.687Z,117.54
2023-02-02T00:35:03.714Z,112.51
2023-02-02T00:36:03.755Z,113.42
2023-02-02T00:37:03.768Z,114.37
2023-02-02T00:38:03.786Z,114.89
2023-02-02T00:39:03.825Z,113.20
2023-02-02T00:40:03.861Z,115.73
2023-02-02T00:41:03.869Z,113.79
2023-02-02T00:42:03.921Z,114.23
2023-02-02T00:43:03.943Z,112.74
2023-02-02T00:44:03.993Z,114.16
2023-02-02T00:45:04.022Z,113.63
2023-02-02T00:46:04.051Z,116.09
2023-02-02T00:47:04.030Z,114.84
2023-02-02T00:48:04.104Z,113.95
2023-02-02T00:49:04.123Z,115.62
2023-02-02T00:50:04.163Z,116.73
2023-02-02T00:51:04.183Z,119.12
2023-02-02T00:52:04.237Z,114.04
2023-02-02T00:53:04.261Z,112.93
2023-02-02T00:54:04.284Z,112.61
2023-02-02T00:55:04.303Z,112.86
2023-02-02T00:56:04.380Z,114.59
2023-02-02T00:57:04.404Z,113.90
2023-02-02T00:58:04.415Z,117.23
2023-02-02T00:59:04.442Z,113.82
2023-02-02T01:00:04.484Z,116.03
2023-02-02T01:01:04.573Z,113.18
2023-02-02T01:02:04.537Z,111.75
2023-02-02T01:03:04.664Z,111.76
2023-02-02T01:04:04.604Z,112.45
2023-02-02T01:05:04.637Z,116.37
2023-02-02T01:06:04.645Z,113.34
2023-02-02T01:07:04.701Z,110.25
2023-02-02T01:08:04.690Z,115.61
2023-02-02T01:09:04.720Z,113.07
2023-02-02T01:10:04.776Z,114.98
2023-02-02T01:11:04.777Z,112.31
2023-02-02T01:12:04.837Z,109.80
2023-02-02T01:13:04.899Z,111.59
2023-02-02T01:14:04.896Z,110.03
2023-02-02T01:15:04.878Z,113.60
2023-02-02T01:16:04.982Z,111.08
2023-02-02T01:17:04.972Z,113.79
2023-02-02T01:18:05.009Z,114.33
2023-02-02T01:19:05.032Z,113.72
2023-02-02T01:20:05.043Z,116.76
2023-02-02T01:21:05.083Z,112.05
2023-02-02T01:22:05.096Z,112.05
2023-02-02T01:23:05.159Z,105.73
2023-02-02T01:24:05.164Z,112.54
2023-02-02T01:25:05.210Z,109.65
2023-02-02T01:26:05.197Z,108.92
2023-02-02T01:27:05.232Z,110.82
2023-02-02T01:28:05.254Z,109.77
2023-02-02T01:29:05.311Z,111.11
2023-02-02T01:30:05.317Z,112.56
2023-02-02T01:31:05.410Z,116.16
2023-02-02T01:32:05.480Z,109.40
2023-02-02T01:33:05.441Z,109.79
2023-02-02T01:34:05.458Z,109.90
2023-02-02T01:35:05.448Z,109.07
2023-02-02T01:36:05.503Z,106.56
2023-02-02T01:37:05.535Z,110.64
2023-02-02T01:38:05.581Z,109.20
2023-02-02T01:39:05.562Z,109.88
2023-02-02T01:40:05.600Z,112.32
2023-02-02T01:41:05.646Z,110.98
2023-02-02T01:42:05.653Z,110.02
2023-02-02T01:43:05.706Z,112.49
2023-02-02T01:44:05.719Z,115.38
2023-02-02T06:01:12.775Z,118.46
2023-02-02T06:03:12.910Z,119.07
2023-02-02T06:04:12.862Z,117.73
2023-02-02T06:05:12.745Z,118.17
2023-02-02T06:06:12.756Z,116.66
2023-02-02T06:07:12.748Z,118.06
2023-02-02T06:08:12.776Z,117.81
2023-02-02T06:09:12.732Z,118.05
2023-02-02T06:10:12.749Z,116.83
2023-02-02T06:11:12.752Z,119.57
2023-02-02T06:12:12.758Z,117.94
2023-02-02T06:13:12.773Z,119.98
2023-02-02T06:14:12.689Z,119.19
2023-02-02T06:15:12.702Z,116.91
2023-02-02T06:16:12.794Z,120.66
2023-02-02T06:17:12.676Z,115.09
2023-02-02T06:18:12.709Z,115.71
2023-02-02T06:19:12.710Z,114.01
2023-02-02T06:20:12.726Z,113.19
2023-02-02T06:21:12.649Z,113.80
2023-02-02T06:22:12.663Z,114.40
2023-02-02T06:23:12.684Z,114.28
2023-02-02T06:24:12.642Z,113.83
2023-02-02T06:33:13.358Z,129.87
2023-02-02T06:43:12.627Z,245.32
2023-02-02T06:44:12.881Z,239.45
2023-02-02T06:46:19.722Z,217.53
2023-02-02T07:13:12.609Z,167.21
2023-02-02T07:24:12.516Z,144.69
2023-02-02T07:25:12.612Z,131.53
2023-02-02T07:26:12.575Z,109.91
2023-02-02T07:27:12.636Z,105.28
2023-02-02T07:28:12.673Z,92.42
2023-02-02T07:29:12.931Z,78.30
2023-02-02T07:45:24.618Z,108.93
2023-02-02T07:46:14.201Z,109.25
2023-02-02T07:57:13.331Z,135.67
2023-02-02T07:58:13.328Z,134.29
2023-02-02T07:59:13.377Z,136.39
2023-02-02T08:00:13.955Z,137.42
2023-02-02T08:01:13.505Z,135.49
2023-02-02T08:02:13.519Z,134.32
2023-02-02T08:03:13.613Z,135.92
2023-02-02T08:04:13.562Z,136.78
2023-02-02T08:05:13.616Z,138.81
2023-02-02T08:06:13.696Z,137.93
2023-02-02T08:07:15.063Z,135.86
2023-02-02T08:08:13.686Z,137.78
2023-02-02T08:09:13.688Z,138.16
2023-02-02T08:11:13.749Z,137.65
2023-02-02T08:12:13.757Z,139.46
2023-02-02T08:13:13.769Z,136.42
2023-02-02T08:14:13.834Z,132.45
2023-02-02T08:15:13.853Z,134.75
2023-02-02T08:16:13.933Z,135.74
2023-02-02T08:17:13.881Z,137.92
2023-02-02T08:18:13.856Z,135.81
2023-02-02T08:19:13.897Z,133.96
2023-02-02T08:20:13.902Z,133.71
2023-02-02T08:21:13.922Z,136.56
2023-02-02T08:22:13.905Z,133.22
2023-02-02T08:23:13.961Z,135.16
2023-02-02T08:24:13.970Z,135.89
2023-02-02T08:26:14.009Z,129.88
2023-02-02T08:28:14.094Z,134.11
2023-02-02T08:29:14.268Z,131.91
2023-02-02T08:31:14.245Z,132.08
2023-02-02T09:29:15.736Z,92.24
2023-02-02T10:08:25.964Z,35.92
2023-02-02T10:09:18.043Z,29.43
2023-02-02T10:10:17.841Z,16.25
2023-02-02T10:11:17.471Z,15.78
2023-02-02T10:12:17.065Z,9.27
2023-02-02T10:13:17.034Z,16.70
2023-02-02T10:14:17.037Z,25.44
2023-02-02T10:15:17.043Z,23.81
2023-02-02T10:16:17.179Z,23.10
2023-02-02T10:17:17.194Z,26.53
2023-02-02T10:18:16.989Z,31.03
2023-02-02T10:19:16.985Z,37.36
2023-02-02T10:20:17.079Z,42.36
2023-02-02T10:21:17.024Z,41.97
2023-02-02T10:22:16.976Z,37.63
2023-02-02T10:23:17.005Z,38.74
2023-02-02T10:24:17.032Z,40.00
2023-02-02T10:25:17.142Z,52.38
2023-02-02T10:26:17.190Z,56.02
2023-02-02T10:27:17.199Z,57.32
2023-02-02T10:28:17.139Z,54.93
2023-02-02T10:29:17.124Z,52.29
2023-02-02T10:30:17.137Z,61.26
2023-02-02T10:31:17.335Z,68.08
2023-02-02T10:32:17.130Z,70.99
2023-02-02T10:33:17.176Z,70.57
2023-02-02T10:34:17.255Z,71.67
2023-02-02T10:35:17.313Z,69.45
2023-02-02T10:36:17.311Z,66.37
2023-02-02T10:37:17.377Z,59.60
2023-02-02T10:45:17.646Z,112.72
2023-02-02T10:46:17.716Z,118.08
2023-02-02T10:47:17.749Z,118.99
2023-02-02T10:48:17.800Z,121.43
2023-02-02T10:51:17.935Z,134.48
2023-02-02T10:53:18.051Z,140.42
2023-02-02T10:54:18.065Z,141.95
2023-02-02T10:55:18.043Z,135.27
2023-02-02T11:12:18.841Z,126.27
2023-02-02T13:22:23.556Z,163.06
2023-02-02T13:26:23.510Z,164.42
2023-02-02T13:27:23.504Z,164.86
2023-02-02T13:28:23.437Z,162.68
2023-02-02T13:29:23.514Z,161.69
2023-02-02T13:30:23.622Z,164.89
2023-02-02T13:31:23.743Z,162.55
2023-02-02T13:32:23.798Z,170.83
2023-02-02T13:33:23.745Z,177.81
2023-02-02T13:58:24.783Z,176.89
2023-02-02T14:07:25.343Z,159.92
2023-02-02T14:15:26.110Z,154.98
2023-02-02T15:36:30.209Z,114.12
2023-02-02T15:37:30.281Z,114.35
2023-02-02T15:38:30.364Z,113.24
2023-02-02T15:39:30.421Z,113.40
2023-02-02T15:40:30.440Z,115.70
2023-02-02T15:41:30.545Z,114.15
2023-02-02T15:42:30.581Z,114.82
2023-02-02T15:43:30.668Z,113.49
2023-02-02T15:44:30.717Z,116.38
2023-02-02T15:45:31.258Z,116.28
2023-02-02T15:46:30.816Z,113.21
2023-02-02T15:47:30.895Z,113.20
2023-02-02T15:48:30.962Z,115.63
2023-02-02T15:49:34.630Z,115.26
2023-02-02T15:50:30.948Z,115.30
2023-02-02T15:51:30.965Z,115.50
2023-02-02T15:52:30.969Z,115.96
2023-02-02T15:53:30.942Z,114.20
2023-02-02T15:54:30.942Z,114.64
2023-02-02T15:55:30.940Z,115.31
2023-02-02T15:56:30.954Z,117.64
2023-02-02T15:57:30.897Z,113.07
2023-02-02T15:58:30.911Z,116.69
2023-02-02T15:59:30.934Z,114.09
2023-02-02T16:00:31.025Z,116.15
2023-02-02T16:01:30.863Z,116.11
2023-02-02T16:02:30.890Z,114.15
2023-02-02T16:03:30.910Z,119.86
2023-02-02T16:04:30.961Z,120.57
2023-02-02T16:05:30.852Z,120.41
2023-02-02T16:06:30.861Z,119.78
2023-02-02T16:07:30.884Z,121.73
2023-02-02T16:08:30.879Z,118.36
2023-02-02T16:09:30.836Z,116.92
2023-02-02T16:10:30.848Z,121.61
2023-02-02T16:11:30.823Z,121.47
2023-02-02T16:12:30.809Z,121.76
2023-02-02T16:13:30.819Z,120.05
2023-02-02T16:14:30.813Z,119.88
2023-02-02T16:15:30.857Z,122.96
2023-02-02T16:16:30.922Z,121.83
2023-02-02T16:17:30.908Z,123.63
2023-02-02T16:18:30.940Z,122.67
2023-02-02T16:19:30.988Z,123.79
2023-02-02T16:20:31.048Z,119.97
2023-02-02T16:21:31.635Z,125.65
2023-02-02T16:22:31.106Z,120.37
2023-02-02T16:23:31.101Z,124.86
2023-02-02T16:24:31.116Z,123.77
2023-02-02T16:25:31.200Z,125.98
2023-02-02T16:26:31.297Z,125.51
2023-02-02T16:27:31.242Z,128.10
2023-02-02T16:28:31.347Z,125.62
2023-02-02T16:29:31.350Z,127.51
2023-02-02T16:30:31.463Z,122.87
2023-02-02T16:31:31.536Z,127.12
2023-02-02T16:32:31.478Z,124.71
2023-02-02T16:33:31.593Z,125.39
2023-02-02T16:34:31.539Z,124.87
2023-02-02T16:35:31.627Z,122.54
2023-02-02T16:36:31.676Z,122.24
2023-02-02T16:37:31.718Z,126.57
2023-02-02T16:38:31.766Z,124.37
2023-02-02T16:39:31.755Z,125.56
2023-02-02T16:40:31.792Z,127.99
2023-02-02T16:41:31.835Z,123.01
2023-02-02T16:42:31.839Z,122.26
2023-02-02T16:43:31.925Z,125.30
2023-02-02T16:44:31.922Z,122.53
2023-02-02T16:45:33.947Z,121.59
2023-02-02T16:46:31.968Z,121.37
2023-02-02T16:47:32.050Z,123.83
2023-02-02T16:48:32.056Z,119.02
2023-02-02T16:49:32.110Z,119.15
2023-02-02T16:50:32.128Z,122.03
2023-02-02T16:51:33.906Z,120.70
2023-02-02T16:52:32.231Z,119.33
2023-02-02T16:53:32.219Z,117.44
2023-02-02T16:54:32.257Z,112.39
2023-02-02T16:55:47.801Z,120.72
2023-02-02T16:56:33.252Z,120.79
2023-02-02T16:57:34.163Z,117.19
2023-02-02T16:58:32.225Z,118.01
2023-02-02T16:59:32.225Z,114.95
2023-02-02T17:00:32.232Z,119.06
2023-02-02T17:01:32.248Z,112.63
2023-02-02T17:02:32.382Z,119.22
2023-02-02T17:03:32.253Z,111.13
2023-02-02T17:04:32.226Z,110.75
2023-02-02T17:05:32.267Z,110.03
2023-02-02T17:06:45.734Z,117.55
2023-02-02T17:07:33.355Z,117.64
2023-02-02T17:08:32.242Z,112.83
2023-02-02T17:09:34.832Z,116.87
2023-02-02T17:10:32.235Z,116.23
2023-02-02T17:11:32.194Z,113.13
2023-02-02T17:12:34.240Z,116.13
2023-02-02T17:13:32.310Z,116.17
2023-02-02T17:14:32.322Z,116.56
2023-02-02T17:15:34.625Z,112.61
2023-02-02T17:16:32.545Z,116.28
2023-02-02T17:17:32.570Z,112.92
2023-02-02T17:18:32.557Z,109.51
2023-02-02T17:19:32.518Z,114.72
2023-02-02T17:20:32.591Z,112.30
2023-02-02T17:21:33.889Z,115.50
2023-02-02T17:22:32.547Z,109.68
2023-02-02T17:23:32.609Z,114.11
2023-02-02T17:24:32.554Z,112.33
2023-02-02T17:25:32.587Z,113.73
2023-02-02T17:26:32.552Z,113.12
2023-02-02T17:27:34.039Z,109.66
2023-02-02T17:28:32.584Z,109.34
2023-02-02T17:29:32.542Z,109.94
2023-02-02T17:30:32.562Z,107.80
2023-02-02T17:31:32.590Z,108.44
2023-02-02T17:32:32.538Z,112.89
2023-02-02T17:33:34.123Z,111.28
2023-02-02T17:34:32.587Z,110.78
2023-02-02T17:35:47.312Z,109.46
2023-02-02T17:36:33.574Z,107.56
2023-02-02T17:37:32.518Z,109.92
2023-02-02T17:38:32.532Z,107.32
2023-02-02T17:39:32.522Z,109.27
2023-02-02T17:40:32.499Z,108.66
2023-02-02T17:41:32.509Z,110.48
2023-02-02T17:42:32.520Z,108.52
2023-02-02T17:43:32.541Z,111.23
2023-02-02T17:44:32.482Z,106.70
2023-02-02T17:45:34.104Z,109.63
2023-02-02T17:46:32.568Z,110.64
2023-02-02T17:47:32.441Z,110.24
2023-02-02T17:48:32.467Z,107.23
2023-02-02T17:49:32.412Z,110.10
2023-02-02T17:50:32.427Z,108.73
2023-02-02T17:51:32.421Z,106.69
2023-02-02T17:52:32.433Z,110.57
2023-02-02T17:53:33.538Z,105.99
2023-02-02T17:54:32.381Z,108.30
2023-02-02T17:55:32.409Z,105.62
2023-02-02T17:56:32.416Z,102.95
2023-02-02T17:57:32.355Z,107.25
2023-02-02T17:58:32.380Z,105.57
2023-02-02T17:59:32.363Z,106.87
2023-02-02T18:00:32.420Z,108.15
2023-02-02T18:01:32.384Z,105.48
2023-02-02T18:02:32.359Z,106.37
2023-02-02T18:03:34.146Z,103.58
2023-02-02T18:04:32.337Z,105.21
2023-02-02T18:05:32.303Z,104.38
2023-02-02T18:06:32.326Z,106.11
2023-02-02T18:07:32.275Z,103.02
2023-02-02T18:08:32.314Z,106.08
2023-02-02T18:09:33.785Z,102.95
2023-02-02T18:10:32.287Z,101.86
2023-02-02T18:11:32.295Z,105.12
2023-02-02T18:12:32.318Z,103.78
2023-02-02T18:13:32.336Z,103.89
2023-02-02T18:14:32.319Z,103.06
2023-02-02T18:15:32.428Z,102.44
2023-02-02T18:16:32.352Z,103.76
2023-02-02T18:17:34.074Z,101.11
2023-02-02T18:18:32.371Z,104.67
2023-02-02T18:19:32.349Z,105.57
2023-02-02T18:20:32.378Z,102.98
2023-02-02T18:21:32.392Z,103.69
2023-02-02T18:22:32.392Z,105.11
2023-02-02T18:23:32.404Z,103.25
2023-02-02T18:24:32.415Z,103.23
2023-02-02T18:25:32.435Z,102.57
2023-02-02T18:26:32.492Z,101.70
2023-02-02T18:27:32.475Z,98.67
2023-02-02T18:28:32.554Z,101.53
2023-02-02T18:29:32.508Z,102.50
2023-02-02T18:30:32.514Z,101.41
2023-02-02T18:31:32.683Z,97.15
2023-02-02T18:32:32.572Z,102.02
2023-02-02T18:33:32.684Z,102.11
2023-02-02T18:34:32.551Z,101.75
2023-02-02T18:35:32.613Z,99.59
2023-02-02T18:36:32.605Z,100.85
2023-02-02T18:37:32.617Z,101.60
2023-02-02T18:38:32.625Z,101.36
2023-02-02T18:39:32.655Z,101.40
2023-02-02T18:40:32.648Z,99.79
2023-02-02T18:41:32.702Z,101.74
2023-02-02T18:42:32.706Z,100.17
2023-02-02T18:43:32.721Z,101.29
2023-02-02T18:44:32.759Z,100.23
2023-02-02T18:45:32.758Z,101.21
2023-02-02T18:46:32.934Z,100.56
2023-02-02T18:47:32.825Z,104.70
2023-02-02T18:48:32.829Z,98.90
2023-02-02T18:49:32.859Z,99.49
2023-02-02T18:50:32.829Z,100.75
2023-02-02T18:51:32.843Z,97.31
2023-02-02T19:02:33.002Z,97.96
2023-02-02T19:03:32.984Z,98.02
2023-02-02T19:04:32.978Z,97.51
2023-02-02T19:05:32.966Z,96.78
2023-02-02T19:06:32.978Z,96.15
2023-02-02T19:07:32.972Z,97.33
2023-02-02T19:08:33.938Z,96.19
2023-02-02T19:09:32.990Z,97.61
2023-02-02T19:10:33.029Z,95.51
2023-02-02T19:11:33.060Z,96.50
2023-02-02T19:12:33.046Z,95.02
2023-02-02T19:13:33.043Z,94.10
2023-02-02T19:14:33.136Z,97.30
2023-02-02T19:15:33.096Z,93.33
2023-02-02T19:16:33.101Z,93.82
2023-02-02T19:17:33.120Z,91.18
2023-02-02T19:18:33.136Z,94.53
2023-02-02T19:19:33.163Z,93.05
2023-02-02T19:20:33.164Z,93.82
2023-02-02T19:21:33.170Z,92.16
2023-02-02T19:22:33.181Z,94.65
2023-02-02T19:23:33.241Z,93.12
2023-02-02T19:24:33.221Z,93.30
2023-02-02T19:25:33.206Z,92.69
2023-02-02T19:26:33.290Z,94.52
2023-02-02T19:27:33.211Z,93.59
2023-02-02T19:28:33.270Z,90.98
2023-02-02T19:29:33.273Z,92.58
2023-02-02T19:30:33.309Z,93.37
2023-02-02T19:31:33.294Z,94.52
2023-02-02T19:32:33.322Z,92.71
2023-02-02T19:33:33.299Z,92.26
2023-02-02T19:34:33.315Z,91.20
2023-02-02T19:35:33.316Z,92.09
2023-02-02T19:36:33.323Z,93.84
2023-02-02T19:37:33.371Z,92.31
2023-02-02T19:38:33.352Z,89.45
2023-02-02T19:39:33.363Z,88.76
2023-02-02T19:40:33.404Z,90.95
2023-02-02T19:41:33.450Z,91.14
2023-02-02T19:42:33.443Z,89.97
2023-02-02T19:43:33.482Z,91.19
2023-02-02T19:44:33.484Z,90.82
2023-02-02T19:45:33.507Z,90.70
2023-02-02T19:46:33.541Z,88.59
2023-02-02T19:47:33.568Z,90.82
2023-02-02T19:48:33.566Z,90.02
2023-02-02T19:49:33.567Z,89.42
2023-02-02T19:50:33.635Z,93.71
2023-02-02T19:51:33.644Z,92.31
2023-02-02T19:52:33.644Z,89.25
2023-02-02T19:53:33.708Z,87.39
2023-02-02T19:54:33.715Z,90.53
2023-02-02T19:55:33.675Z,88.25
2023-02-02T19:56:33.709Z,88.25
2023-02-02T19:57:33.734Z,91.02
2023-02-02T19:58:33.776Z,89.16
2023-02-02T19:59:33.800Z,89.95
2023-02-02T20:00:33.854Z,89.31
2023-02-02T20:01:33.795Z,88.24
2023-02-02T20:02:33.843Z,90.79
2023-02-02T20:03:33.874Z,90.18
2023-02-02T20:04:33.887Z,90.58
2023-02-02T20:05:33.908Z,87.43
2023-02-02T20:06:33.921Z,88.29
2023-02-02T20:07:33.951Z,88.65
2023-02-02T20:08:33.964Z,88.65
2023-02-02T20:09:34.061Z,87.14
2023-02-02T20:10:34.020Z,88.69
2023-02-02T20:11:34.041Z,86.03
2023-02-02T20:12:34.090Z,87.08
2023-02-02T20:13:34.068Z,88.48
2023-02-02T20:14:34.116Z,87.87
2023-02-02T20:15:34.156Z,89.26
2023-02-02T20:16:34.214Z,87.70
2023-02-02T20:17:34.201Z,87.52
2023-02-02T20:18:34.189Z,87.93
2023-02-02T20:19:34.224Z,87.36
2023-02-02T20:20:34.222Z,86.82
2023-02-02T20:21:34.256Z,87.69
2023-02-02T20:22:34.312Z,85.45
2023-02-02T20:23:34.282Z,89.22
2023-02-02T20:24:34.328Z,85.90
2023-02-02T20:25:34.328Z,87.43
2023-02-02T20:26:34.490Z,86.28
2023-02-02T20:27:34.376Z,85.78
2023-02-02T20:28:34.390Z,88.66
2023-02-02T20:29:34.409Z,85.56
2023-02-02T20:30:34.438Z,85.35
2023-02-02T20:31:34.548Z,85.41
2023-02-02T20:32:34.487Z,85.03
2023-02-02T20:33:34.528Z,83.76
2023-02-02T20:34:34.534Z,84.52
2023-02-02T20:35:34.568Z,83.94
2023-02-02T20:36:34.583Z,84.72
2023-02-02T20:37:34.594Z,85.84
2023-02-02T20:38:34.633Z,84.63
2023-02-02T20:39:34.676Z,85.77
2023-02-02T20:40:34.679Z,82.85
2023-02-02T20:41:34.678Z,85.82
2023-02-02T20:42:34.739Z,85.16
2023-02-02T20:43:34.724Z,83.04
2023-02-02T20:44:34.732Z,83.75
2023-02-02T20:45:34.823Z,84.81
2023-02-02T20:46:34.806Z,83.55
2023-02-02T20:47:34.821Z,83.90
2023-02-02T20:48:34.837Z,83.54
2023-02-02T20:49:34.888Z,82.18
2023-02-02T20:50:34.907Z,84.50
2023-02-02T20:51:34.917Z,82.66
2023-02-02T20:52:34.934Z,84.48
2023-02-02T20:53:34.984Z,82.31
2023-02-02T20:54:34.973Z,80.25
2023-02-02T20:55:34.970Z,82.03
2023-02-02T20:56:34.992Z,81.88
2023-02-02T20:57:35.055Z,81.11
2023-02-02T20:58:35.074Z,83.22
2023-02-02T20:59:35.100Z,82.48
2023-02-02T21:00:35.116Z,82.72
2023-02-02T21:01:35.227Z,82.08
2023-02-02T21:02:35.168Z,82.14
2023-02-02T21:03:35.196Z,81.34
2023-02-02T21:04:35.210Z,82.37
2023-02-02T21:05:35.218Z,80.18
2023-02-02T21:06:35.248Z,79.36
2023-02-02T21:07:35.275Z,80.55
2023-02-02T21:08:35.345Z,79.93
2023-02-02T21:09:35.332Z,81.86
2023-02-02T21:10:35.377Z,82.12
2023-02-02T21:11:35.394Z,82.11
2023-02-02T21:12:35.410Z,79.61
2023-02-02T21:13:35.404Z,78.27
2023-02-02T21:14:35.429Z,78.82
2023-02-02T21:15:35.496Z,79.98
2023-02-02T21:16:35.540Z,81.17
2023-02-02T21:17:35.494Z,76.51
2023-02-02T21:18:35.553Z,80.86
2023-02-02T21:19:35.536Z,79.23
2023-02-02T21:20:35.549Z,82.13
2023-02-02T21:21:35.643Z,75.49
2023-02-02T21:22:35.580Z,78.64
2023-02-02T21:23:35.630Z,81.05
2023-02-02T21:24:35.675Z,78.31
2023-02-02T21:25:35.656Z,78.22
2023-02-02T21:26:35.699Z,76.15
2023-02-02T21:27:35.705Z,79.63
2023-02-02T21:28:35.787Z,76.44
2023-02-02T21:29:35.782Z,78.92
2023-02-02T21:30:35.887Z,77.29
2023-02-02T21:31:35.975Z,76.85
2023-02-02T21:32:35.854Z,77.21
2023-02-02T21:33:35.838Z,77.16
2023-02-02T21:34:35.866Z,77.86
2023-02-02T21:35:35.887Z,78.19
2023-02-02T21:36:35.898Z,77.15
2023-02-02T21:37:35.958Z,75.08
2023-02-02T21:38:35.935Z,75.59
2023-02-02T21:39:35.961Z,75.01
2023-02-02T21:40:35.956Z,76.20
2023-02-02T21:41:36.004Z,75.81
2023-02-02T21:42:36.011Z,76.09
2023-02-02T21:43:36.033Z,75.30
2023-02-02T21:44:36.093Z,76.44
2023-02-02T21:45:36.126Z,77.81
2023-02-02T21:46:36.188Z,73.43
2023-02-02T21:47:36.114Z,77.34
2023-02-02T21:48:36.182Z,76.90
2023-02-02T21:49:36.185Z,74.71
2023-02-02T21:50:36.179Z,74.50
2023-02-02T21:51:36.191Z,75.29
2023-02-02T21:52:36.758Z,75.12
2023-02-02T21:53:36.262Z,75.07
2023-02-02T21:54:36.304Z,73.99
2023-02-02T21:55:36.321Z,74.82
2023-02-02T21:56:36.305Z,71.84
2023-02-02T21:57:36.404Z,72.45
2023-02-02T21:58:36.395Z,73.93
2023-02-02T21:59:36.385Z,75.69
2023-02-02T22:00:36.400Z,72.40
2023-02-02T22:01:36.525Z,72.05
2023-02-02T22:02:36.550Z,75.06
2023-02-02T22:03:36.483Z,72.63
2023-02-02T22:04:36.532Z,73.46
2023-02-02T22:05:36.550Z,72.62
2023-02-02T22:06:36.555Z,71.40
2023-02-02T22:07:36.598Z,69.35
2023-02-02T22:08:36.585Z,72.83
2023-02-02T22:09:36.643Z,75.13
2023-02-02T22:10:36.694Z,73.67
2023-02-02T22:11:36.683Z,72.82
2023-02-02T22:12:36.700Z,72.21
2023-02-02T22:13:36.736Z,72.35
2023-02-02T22:14:36.745Z,75.26
2023-02-02T22:15:38.302Z,71.66
2023-02-02T22:16:36.831Z,70.01
2023-02-02T22:17:36.834Z,72.24
2023-02-02T22:18:36.849Z,71.22
2023-02-02T22:19:36.887Z,73.12
2023-02-02T22:20:36.904Z,69.01
2023-02-02T22:21:36.915Z,74.93
2023-02-02T22:22:36.938Z,68.34
2023-02-02T22:23:36.972Z,70.38
2023-02-02T22:24:37.006Z,69.44
2023-02-02T22:25:37.020Z,68.13
2023-02-02T22:26:37.095Z,68.13
2023-02-02T22:27:37.133Z,71.50
2023-02-02T22:28:37.105Z,68.23
2023-02-02T22:29:37.150Z,69.91
2023-02-02T22:30:37.233Z,69.94
2023-02-02T22:31:37.311Z,70.70
2023-02-02T22:32:37.224Z,70.07
2023-02-02T22:33:37.236Z,71.17
2023-02-02T22:34:37.260Z,71.69
2023-02-02T22:35:37.288Z,69.79
2023-02-02T22:36:37.292Z,71.66
2023-02-02T22:37:37.332Z,69.55
2023-02-02T22:38:37.370Z,69.17
2023-02-02T22:39:37.394Z,69.72
2023-02-02T22:40:37.381Z,69.14
2023-02-02T22:41:37.436Z,66.95
2023-02-02T22:42:37.444Z,70.51
2023-02-02T22:43:37.453Z,67.39
2023-02-02T22:44:37.474Z,67.42
2023-02-02T22:45:37.524Z,67.23
2023-02-02T22:46:37.673Z,67.45
2023-02-02T22:47:37.579Z,68.97
2023-02-02T22:48:37.566Z,65.67
2023-02-02T22:49:37.625Z,67.34
2023-02-02T22:50:37.659Z,67.99
2023-02-02T22:51:37.665Z,66.18
2023-02-02T22:52:37.710Z,67.88
2023-02-02T22:53:37.779Z,66.97
2023-02-02T22:54:37.765Z,65.69
2023-02-02T22:55:37.808Z,67.08
2023-02-02T22:56:37.856Z,66.55
2023-02-02T22:57:37.811Z,64.18
2023-02-02T22:58:37.858Z,63.16
2023-02-02T22:59:37.900Z,65.89
2023-02-02T23:00:37.937Z,61.97
2023-02-02T23:01:37.902Z,65.27
2023-02-02T23:02:37.953Z,64.22
2023-02-02T23:03:38.105Z,66.01
2023-02-02T23:04:38.016Z,64.75
2023-02-02T23:05:38.006Z,63.48
2023-02-02T23:06:38.066Z,65.48
2023-02-02T23:07:38.101Z,64.68
2023-02-02T23:08:38.104Z,64.64
2023-02-02T23:09:38.126Z,65.69
2023-02-02T23:10:38.131Z,63.42
2023-02-02T23:11:38.194Z,64.24
2023-02-02T23:12:38.211Z,64.16
2023-02-02T23:13:38.273Z,67.13
2023-02-02T23:14:38.282Z,65.39
2023-02-02T23:15:38.309Z,62.16
2023-02-02T23:16:38.361Z,65.72
2023-02-02T23:17:38.359Z,64.32
2023-02-02T23:18:38.359Z,61.98
2023-02-02T23:19:38.407Z,64.67
2023-02-02T23:20:38.409Z,63.12
2023-02-02T23:21:38.492Z,64.08
2023-02-02T23:22:38.538Z,61.99
2023-02-02T23:23:38.530Z,63.57
2023-02-02T23:24:38.536Z,65.67
2023-02-02T23:25:38.607Z,63.85
2023-02-02T23:26:38.580Z,63.52
2023-02-02T23:27:38.650Z,62.59
2023-02-02T23:28:38.636Z,63.69
2023-02-02T23:29:38.670Z,63.34
2023-02-02T23:30:38.782Z,63.68
2023-02-02T23:31:38.798Z,61.57
2023-02-02T23:32:38.797Z,63.02
2023-02-02T23:33:38.822Z,59.90
2023-02-02T23:34:38.871Z,60.57
2023-02-02T23:35:38.884Z,61.51
2023-02-02T23:36:38.879Z,63.87
2023-02-02T23:37:38.959Z,62.15
2023-02-02T23:38:38.944Z,64.71
2023-02-02T23:39:39.019Z,60.80
2023-02-02T23:40:39.031Z,61.31
2023-02-02T23:41:39.029Z,63.36
2023-02-02T23:42:39.074Z,59.66
2023-02-02T23:43:39.152Z,61.92
2023-02-02T23:44:39.154Z,60.81
2023-02-02T23:45:39.150Z,61.69
2023-02-02T23:46:39.270Z,61.08
2023-02-02T23:47:39.225Z,59.65
2023-02-02T23:48:39.271Z,60.43
2023-02-02T23:49:39.277Z,58.20
2023-02-02T23:50:39.334Z,60.16
2023-02-02T23:51:39.352Z,61.69
2023-02-02T23:52:39.421Z,60.54
2023-02-02T23:53:39.418Z,60.58
2023-02-02T23:54:39.424Z,58.82
2023-02-02T23:55:39.418Z,60.35
2023-02-02T23:56:39.437Z,58.62
2023-02-02T23:57:39.510Z,60.09
2023-02-02T23:58:39.557Z,59.48
2023-02-02T23:59:39.556Z,58.20
